Latest Weather Observations for Cairns

IDQ60801

Issued at 9:02 am EST Wednesday 18 January 2017 (issued every 30 minutes, with the page automatically refreshed every 10 minutes)

About weather observations | Map of weather stations | Latest weather observations for QLD | Other Formats
Station Details ID: 031011 Name: CAIRNS AERO Lat: -16.87 Lon: 145.75 Height: 2.22 m
Data from the previous 72 hours. | See also: Recent months at Cairns
Date/Time
EST
Temp
°C
App
Temp
°C
Dew
Point
°C
Rel
Hum
%
Delta-T
°C
Wind Press
QNH
hPa
Press
MSL
hPa
Rain since
9am
mm
Dir  Spd
km/h
Gust
km/h
Spd
kts
Gust
kts
18/09:00am 28.6 31.7 24.8 80 2.7 SSE 17 19 9 10 1013.4 - -
18/08:30am 27.5 31.2 24.6 84 2.0 SSE 13 17 7 9 1013.4 1013.3 39.2
18/08:00am 27.1 31.2 24.6 86 1.7 SE 11 15 6 8 1013.2 1013.1 39.2
18/07:30am 25.6 30.4 24.4 93 0.8 SSE 7 9 4 5 1013.4 1013.3 39.2
18/07:00am 25.1 30.3 24.2 95 0.6 W 4 7 2 4 1013.4 1013.3 39.2
18/06:30am 24.7 29.4 24.0 96 0.5 W 6 7 3 4 1013.3 1013.2 39.2
18/06:00am 24.5 28.5 23.8 96 0.5 SSW 9 13 5 7 1012.9 1012.8 39.2
18/05:30am 24.8 28.1 23.9 95 0.6 SE 13 17 7 9 1012.2 1012.1 39.2
18/05:00am 24.7 27.2 23.8 95 0.6 SE 17 24 9 13 1011.7 1011.6 39.2
18/04:30am 24.9 28.3 23.3 91 1.1 SSE 11 22 6 12 1011.6 1011.5 39.2
18/04:00am 24.4 28.1 23.2 93 0.8 SSW 9 13 5 7 1011.5 1011.4 39.0
18/03:30am 25.0 27.9 23.1 89 1.3 S 13 19 7 10 1011.6 1011.5 37.4
18/03:00am 24.7 28.7 23.7 94 0.7 S 9 17 5 9 1011.4 1011.3 37.4
18/02:30am 24.6 29.1 23.9 96 0.5 S 7 13 4 7 1011.6 1011.5 36.8
18/02:00am 24.8 29.0 24.1 96 0.5 NW 9 11 5 6 1011.7 1011.6 35.8
18/01:57am 24.8 29.0 24.1 96 0.5 NW 9 13 5 7 1011.7 1011.6 35.8
18/01:30am 24.5 27.8 23.8 96 0.5 S 13 19 7 10 1011.7 1011.6 33.2
18/01:00am 24.9 28.5 24.4 97 0.3 SSE 13 20 7 11 1012.2 1012.1 20.2
18/12:37am 25.0 27.3 24.1 95 0.6 S 19 30 10 16 1012.3 1012.2 14.6
18/12:30am 25.3 27.6 24.1 93 0.8 S 19 26 10 14 1012.2 1012.1 13.6
18/12:00am 25.5 28.7 24.3 93 0.8 S 15 20 8 11 1012.4 1012.3 13.6
 
Date/Time
EST
Temp
°C
App
Temp
°C
Dew
Point
°C
Rel
Hum
%
Delta-T
°C
Wind Press
QNH
hPa
Press
MSL
hPa
Rain since
9am
mm
Dir  Spd
km/h
Gust
km/h
Spd
kts
Gust
kts
17/11:30pm 25.6 29.9 24.9 96 0.5 SE 11 17 6 9 1012.8 1012.7 13.4
17/11:18pm 25.7 29.7 25.0 96 0.5 ESE 13 19 7 10 1012.7 1012.6 13.2
17/11:00pm 25.1 30.2 24.6 97 0.3 S 6 9 3 5 1012.8 1012.7 13.0
17/10:53pm 25.0 29.8 24.5 97 0.3 SSW 7 7 4 4 1012.8 1012.7 13.0
17/10:30pm 25.4 28.4 24.7 96 0.5 ESE 17 26 9 14 1013.5 1013.4 9.0
17/10:23pm 25.9 30.1 25.4 97 0.3 SE 13 20 7 11 1013.4 1013.3 7.2
17/10:00pm 25.1 29.9 24.4 96 0.5 WSW 7 11 4 6 1013.1 1013.0 5.6
17/09:42pm 25.2 28.8 24.3 95 0.6 SSE 13 17 7 9 1013.1 1013.0 2.6
17/09:34pm 25.4 28.9 24.2 93 0.8 SSE 13 17 7 9 1012.9 1012.8 0.4
17/09:30pm 25.5 28.6 24.1 92 1.0 SE 15 20 8 11 1012.8 1012.7 0.0
17/09:00pm 26.8 28.7 23.7 83 2.1 SE 20 30 11 16 1012.6 1012.5 0.0
17/08:30pm 28.0 31.2 24.4 81 2.5 SSE 15 19 8 10 1012.1 1012.0 0.0
17/08:00pm 28.1 31.3 24.3 80 2.6 SSE 15 24 8 13 1011.8 1011.7 0.0
17/07:30pm 28.0 31.6 24.4 81 2.5 SSE 13 17 7 9 1011.2 1011.1 0.0
17/07:00pm 28.7 31.0 24.5 78 2.9 SE 20 30 11 16 1010.9 1010.8 0.0
17/06:30pm 29.4 33.5 24.5 75 3.4 ESE 11 15 6 8 1010.7 1010.6 0.0
17/06:00pm 29.7 33.1 24.1 72 3.9 ESE 13 19 7 10 1010.4 1010.3 0.0
17/05:30pm 30.4 32.0 23.3 66 4.9 E 20 26 11 14 1010.1 1010.0 0.0
17/05:00pm 31.1 31.8 23.7 64 5.1 E 26 32 14 17 1009.7 1009.6 0.0
17/04:30pm 31.5 33.3 24.9 68 4.6 E 24 30 13 16 1009.6 1009.5 0.0
17/04:00pm 31.3 32.9 23.9 64 5.1 E 22 32 12 17 1009.6 1009.5 0.0
17/03:30pm 31.8 34.3 24.7 66 5.0 ENE 20 30 11 16 1009.7 1009.6 0.0
17/03:00pm 31.5 33.9 24.6 67 4.8 NE 20 28 11 15 1009.9 1009.8 0.0
17/02:30pm 31.4 34.7 23.8 64 5.3 ESE 13 32 7 17 1010.0 1009.9 0.0
17/02:00pm 30.2 33.2 24.6 72 3.9 NE 17 22 9 12 1010.5 1010.4 0.0
17/01:30pm 30.8 34.3 25.4 73 3.8 NE 17 22 9 12 1011.1 1011.0 0.0
17/01:00pm 30.1 33.4 24.5 72 3.9 NE 15 19 8 10 1011.6 1011.5 0.0
17/12:30pm 30.6 34.6 25.0 72 3.9 NE 13 19 7 10 1012.1 1012.0 0.0
17/12:00pm 30.1 33.4 23.8 69 4.4 NE 13 17 7 9 1012.4 1012.3 0.0
17/11:30am 31.0 36.4 25.4 72 4.0 NNE 7 11 4 6 1012.9 1012.8 0.0
17/11:00am 29.6 33.6 23.8 71 4.0 SSE 9 13 5 7 1013.1 1013.0 0.0
17/10:30am 28.8 32.4 24.4 77 3.1 SE 13 20 7 11 1013.4 1013.3 0.0
17/10:00am 28.0 31.9 24.2 80 2.6 SSE 11 15 6 8 1013.5 1013.4 0.0
17/09:30am 27.6 31.4 24.0 81 2.5 SSE 11 15 6 8 1013.6 1013.5 0.0
17/09:00am 26.9 31.3 24.4 86 1.7 SE 9 13 5 7 1013.7 1013.6 17.4
17/08:30am 26.6 31.2 24.8 90 1.3 SE 9 13 5 7 1013.1 1013.0 17.4
17/08:00am 25.7 30.0 24.3 92 1.0 SE 9 13 5 7 1012.7 1012.6 17.4
17/07:30am 25.1 28.6 24.2 95 0.6 SSE 13 17 7 9 1012.5 1012.4 17.4
17/07:00am 24.8 28.1 23.9 95 0.6 SSE 13 15 7 8 1012.1 1012.0 17.4
17/06:30am 24.7 29.3 23.8 95 0.6 SE 6 17 3 9 1011.8 1011.7 17.4
17/06:00am 24.6 30.3 23.7 95 0.6 CALM 0 0 0 0 1012.0 1011.9 17.4
17/05:30am 24.4 27.7 23.9 97 0.3 SSE 13 19 7 10 1011.6 1011.5 17.2
17/05:27am 24.5 27.9 24.0 97 0.3 SSE 13 19 7 10 1011.6 1011.5 17.2
17/05:00am 24.8 29.1 24.3 97 0.3 SSE 9 11 5 6 1011.1 1011.0 15.8
17/04:55am 24.9 29.7 24.4 97 0.3 SSE 7 9 4 5 1011.0 1010.9 13.8
17/04:44am 25.0 29.8 24.5 97 0.3 SSE 7 11 4 6 1010.6 1010.5 12.0
17/04:30am 25.0 29.2 24.1 95 0.6 SSE 9 17 5 9 1010.2 1010.1 12.0
17/04:00am 25.0 30.6 24.3 96 0.5 ENE 2 7 1 4 1010.2 1010.1 12.0
17/03:30am 24.9 30.4 24.0 95 0.6 W 2 11 1 6 1010.3 1010.2 11.2
17/03:12am 24.8 27.6 24.3 97 0.3 SSE 17 22 9 12 1010.2 1010.1 11.2
17/03:00am 24.7 27.6 24.4 98 0.2 SSE 17 20 9 11 1010.1 1010.0 10.8
17/02:45am 25.1 29.2 24.6 97 0.3 SE 11 13 6 7 1010.2 1010.1 7.8
17/02:30am 25.0 30.0 24.5 97 0.3 NNE 6 9 3 5 1010.2 1010.1 7.8
17/02:00am 25.0 29.4 24.5 97 0.3 W 9 13 5 7 1010.4 1010.3 7.8
17/01:44am 25.0 30.4 24.5 97 0.3 SSW 4 9 2 5 1010.6 1010.5 7.8
17/01:30am 25.2 29.4 24.7 97 0.3 N 11 17 6 9 1010.9 1010.8 7.4
17/01:23am 25.6 31.2 24.9 96 0.5 ENE 4 17 2 9 1010.9 1010.8 5.0
17/01:00am 25.3 29.7 24.4 95 0.6 W 9 11 5 6 1010.8 1010.7 4.8
17/12:37am 25.6 30.5 24.7 95 0.6 WNW 7 11 4 6 1011.1 1011.0 4.8
17/12:30am 25.6 30.1 24.6 94 0.7 S 9 15 5 8 1011.1 1011.0 4.2
17/12:13am 25.6 28.2 24.6 94 0.7 SSE 19 28 10 15 1011.1 1011.0 4.2
17/12:04am 25.5 27.5 24.6 95 0.6 SE 22 30 12 16 1011.1 1011.0 4.2
17/12:00am 26.0 28.7 24.8 93 0.8 SE 19 30 10 16 1011.3 1011.2 2.8
 
Date/Time
EST
Temp
°C
App
Temp
°C
Dew
Point
°C
Rel
Hum
%
Delta-T
°C
Wind Press
QNH
hPa
Press
MSL
hPa
Rain since
9am
mm
Dir  Spd
km/h
Gust
km/h
Spd
kts
Gust
kts
16/11:54pm 26.8 31.5 24.3 86 1.7 E 7 19 4 10 1011.1 1011.0 0.0
16/11:30pm 26.3 32.1 24.5 90 1.2 WSW 2 6 1 3 1011.2 1011.1 0.0
16/11:00pm 26.7 32.0 24.4 87 1.6 SE 4 11 2 6 1011.5 1011.4 0.0
16/10:30pm 26.3 32.4 24.5 90 1.2 CALM 0 0 0 0 1011.5 1011.4 0.0
16/10:00pm 26.2 32.2 24.8 92 1.0 WNW 2 7 1 4 1011.4 1011.3 0.0
16/09:30pm 27.0 31.5 24.6 87 1.7 WNW 9 11 5 6 1011.1 1011.0 0.0
16/09:00pm 27.2 31.9 24.3 84 2.0 W 7 11 4 6 1010.8 1010.7 0.0
16/08:30pm 27.3 31.4 24.0 82 2.3 W 9 11 5 6 1010.6 1010.5 0.0
16/08:00pm 28.1 32.8 23.9 78 2.9 ENE 6 7 3 4 1010.5 1010.4 0.0
16/07:30pm 28.2 32.5 23.6 76 3.2 ENE 7 9 4 5 1010.2 1010.1 0.0
16/07:00pm 28.4 32.4 23.1 73 3.6 NE 7 11 4 6 1009.8 1009.7 0.0
16/06:30pm 28.6 32.2 23.1 72 3.8 NE 9 13 5 7 1009.4 1009.3 0.0
16/06:00pm 29.1 32.6 23.5 72 3.9 NNE 11 15 6 8 1008.8 1008.7 0.0
16/05:30pm 29.7 32.7 23.4 69 4.3 NE 13 19 7 10 1008.4 1008.3 0.0
16/05:00pm 29.7 32.8 24.1 72 3.9 ENE 15 19 8 10 1007.6 1007.5 0.0
16/04:30pm 30.1 33.5 24.0 70 4.2 NE 13 19 7 10 1007.6 1007.5 0.0
16/04:00pm 29.9 33.1 24.3 72 3.9 ENE 15 20 8 11 1007.8 1007.7 0.0
16/03:30pm 30.2 33.6 25.3 75 3.5 NE 17 22 9 12 1008.0 1007.9 0.0
16/03:00pm 30.3 33.8 24.9 73 3.8 NE 15 19 8 10 1008.1 1008.0 0.0
16/02:30pm 30.1 33.5 24.7 73 3.8 NNE 15 20 8 11 1008.1 1008.0 0.0
16/02:00pm 30.3 33.0 24.7 72 3.9 NNE 19 26 10 14 1008.5 1008.4 0.0
16/01:30pm 30.8 33.2 25.2 72 4.0 N 22 30 12 16 1008.5 1008.4 0.0
16/01:00pm 29.7 31.5 23.6 69 4.2 N 20 28 11 15 1008.5 1008.4 0.0
16/12:30pm 30.7 33.5 23.6 66 4.9 NE 15 20 8 11 1008.3 1008.2 0.0
16/12:00pm 30.5 33.7 23.7 67 4.7 NE 13 19 7 10 1008.3 1008.2 0.0
16/11:30am 30.6 34.6 23.8 67 4.7 SE 9 15 5 8 1008.5 1008.4 0.0
16/11:00am 29.8 33.5 23.3 68 4.5 NNE 9 15 5 8 1009.2 1009.1 0.0
16/10:30am 29.1 32.2 23.5 72 3.9 NNE 13 17 7 9 1009.6 1009.5 0.0
16/10:00am 28.6 32.3 23.3 73 3.6 NNE 9 19 5 10 1010.0 1009.9 0.0
16/09:30am 29.2 33.0 22.7 68 4.4 N 7 9 4 5 1010.0 1009.9 0.0
16/09:00am 28.5 31.3 22.3 69 4.2 SE 11 15 6 8 1009.7 1009.6 6.6
16/08:30am 27.3 32.1 22.9 77 3.0 WNW 2 7 1 4 1009.5 1009.4 6.6
16/08:00am 25.6 28.7 22.9 85 1.8 W 11 13 6 7 1009.2 1009.1 6.6
16/07:30am 25.0 28.6 22.3 85 1.8 SSW 7 15 4 8 1008.9 1008.8 6.6
16/07:00am 24.4 26.6 21.9 86 1.7 SSE 13 17 7 9 1008.4 1008.3 6.6
16/06:30am 23.9 24.7 21.8 88 1.4 SE 20 26 11 14 1008.0 1007.9 6.6
16/06:00am 23.3 28.4 22.6 96 0.5 CALM 0 0 0 0 1007.9 1007.8 6.6
16/05:30am 23.3 27.6 22.6 96 0.5 WSW 4 7 2 4 1007.9 1007.8 6.6
16/05:00am 23.4 26.4 22.0 92 0.9 W 9 11 5 6 1007.9 1007.8 6.6
16/04:30am 23.3 28.3 22.5 95 0.5 CALM 0 0 0 0 1008.1 1008.0 6.6
16/04:00am 23.3 26.6 21.9 92 0.9 W 7 11 4 6 1007.4 1007.3 6.6
16/03:30am 23.5 26.3 21.6 89 1.3 W 9 15 5 8 1007.3 1007.2 6.6
16/03:00am 23.9 28.0 22.3 91 1.1 WSW 4 9 2 5 1007.9 1007.8 6.2
16/02:30am 24.1 27.5 22.7 92 0.9 W 9 15 5 8 1008.0 1007.9 5.8
16/02:12am 24.1 26.6 23.1 94 0.7 W 15 19 8 10 1008.2 1008.1 5.6
16/02:00am 24.3 26.6 23.4 95 0.6 W 17 26 9 14 1008.5 1008.4 5.2
16/01:45am 24.5 27.9 24.0 97 0.3 W 13 17 7 9 1008.9 1008.8 4.4
16/01:30am 24.7 28.7 24.4 98 0.2 WNW 11 15 6 8 1009.0 1008.9 3.8
16/01:00am 24.9 31.0 24.4 97 0.3 CALM 0 0 0 0 1009.3 1009.2 3.2
16/12:30am 24.9 29.7 24.2 96 0.5 SSE 6 7 3 4 1009.6 1009.5 3.2
16/12:00am 25.0 31.0 24.3 96 0.5 CALM 0 6 0 3 1009.9 1009.8 3.2
 
Date/Time
EST
Temp
°C
App
Temp
°C
Dew
Point
°C
Rel
Hum
%
Delta-T
°C
Wind Press
QNH
hPa
Press
MSL
hPa
Rain since
9am
mm
Dir  Spd
km/h
Gust
km/h
Spd
kts
Gust
kts
15/11:30pm 24.8 29.5 24.3 97 0.3 NW 7 9 4 5 1009.5 1009.4 3.0
15/11:00pm 24.9 29.7 24.4 97 0.3 NW 7 11 4 6 1009.6 1009.5 3.0
15/10:30pm 25.0 30.8 24.5 97 0.3 WNW 2 7 1 4 1009.6 1009.5 2.8
15/10:00pm 25.1 30.6 24.6 97 0.3 W 4 9 2 5 1009.7 1009.6 2.6
15/09:30pm 25.1 29.7 24.2 95 0.6 WNW 7 9 4 5 1009.5 1009.4 2.0
15/09:00pm 25.1 29.2 23.9 93 0.8 WSW 9 11 5 6 1009.2 1009.1 1.6
15/08:30pm 24.8 28.6 24.1 96 0.5 W 11 13 6 7 1008.9 1008.8 1.4
15/08:00pm 24.9 28.7 24.0 95 0.6 WNW 11 13 6 7 1008.1 1008.0 1.4
15/07:30pm 25.4 29.1 24.5 95 0.6 NW 13 17 7 9 1008.2 1008.1 1.2
15/07:00pm 25.4 30.0 23.8 91 1.1 SSW 6 9 3 5 1007.8 1007.7 1.2
15/06:30pm 25.5 28.8 23.9 91 1.1 SE 13 15 7 8 1007.4 1007.3 1.2
15/06:00pm 25.5 28.3 23.6 89 1.3 SE 15 19 8 10 1007.3 1007.2 0.6
15/05:30pm 25.7 28.1 23.7 89 1.4 SSE 17 26 9 14 1007.2 1007.1 0.2
15/05:00pm 25.5 27.1 23.9 91 1.1 SSE 22 30 12 16 1007.1 1007.0 0.0
15/04:30pm 26.0 28.0 23.9 88 1.4 SSE 20 28 11 15 1007.2 1007.1 0.0
15/04:00pm 27.7 31.3 23.7 79 2.8 ENE 11 19 6 10 1006.4 1006.3 0.0
15/03:30pm 29.8 33.8 24.4 73 3.8 NNE 11 17 6 9 1006.6 1006.5 0.0
15/03:00pm 30.2 33.9 24.6 72 3.9 NNE 13 17 7 9 1006.6 1006.5 0.0
15/02:30pm 30.4 33.6 24.3 70 4.3 N 15 24 8 13 1006.9 1006.8 0.0
15/02:00pm 30.5 33.5 24.6 70 4.1 NNE 17 22 9 12 1007.1 1007.0 0.0
15/01:30pm 31.4 34.4 25.5 71 4.2 N 20 28 11 15 1007.0 1006.9 0.0
15/01:00pm 31.6 34.6 24.7 67 4.9 N 17 26 9 14 1007.5 1007.4 0.0
15/12:30pm 31.5 34.4 25.4 70 4.3 N 20 28 11 15 1007.7 1007.6 0.0
15/12:00pm 31.2 34.0 24.3 66 4.8 NNE 17 24 9 13 1007.9 1007.8 0.0
15/11:30am 31.1 34.4 24.5 68 4.6 NNE 15 20 8 11 1007.9 1007.8 0.0
15/11:00am 31.1 34.9 24.7 68 4.5 NNE 13 17 7 9 1008.3 1008.2 0.0
15/10:30am 30.5 35.0 25.8 76 3.3 NNE 13 19 7 10 1008.6 1008.5 0.0
15/10:00am 30.5 35.8 25.8 76 3.3 W 9 15 5 8 1009.1 1009.0 0.0
15/09:30am 29.9 35.3 25.2 76 3.3 SE 6 7 3 4 1009.0 1008.9 0.0

Other Formats:

Comma delimited format used in spreadsheet applications
http://www.bom.gov.au/fwo/IDQ60801/IDQ60801.94287.axf

JavaScript Object Notation format (JSON) in row-major order
http://www.bom.gov.au/fwo/IDQ60801/IDQ60801.94287.json